createdAt,value
2019-04-03T00:01:04.711Z,32.00
2019-04-03T00:03:34.543Z,31.97
2019-04-03T00:06:05.599Z,32.01
2019-04-03T00:08:37.078Z,31.90
2019-04-03T00:11:09.435Z,32.09
2019-04-03T00:13:41.453Z,32.12
2019-04-03T00:16:10.206Z,32.03
2019-04-03T00:18:40.776Z,31.79
2019-04-03T00:21:10.429Z,31.87
2019-04-03T00:23:40.042Z,32.15
2019-04-03T00:26:09.995Z,32.08
2019-04-03T00:28:40.404Z,32.04
2019-04-03T00:31:10.025Z,32.11
2019-04-03T00:33:39.681Z,31.94
2019-04-03T00:36:10.678Z,32.01
2019-04-03T00:38:40.284Z,32.16
2019-04-03T00:41:10.258Z,32.10
2019-04-03T00:43:39.892Z,32.19
2019-04-03T00:46:09.507Z,32.19
2019-04-03T00:48:39.156Z,32.29
2019-04-03T00:51:09.391Z,32.20
2019-04-03T00:53:39.708Z,32.13
2019-04-03T00:56:09.361Z,32.35
2019-04-03T00:58:43.215Z,32.45
2019-04-03T01:01:13.520Z,32.41
2019-04-03T01:03:43.264Z,32.52
2019-04-03T01:06:13.844Z,32.63
2019-04-03T01:08:43.532Z,32.81
2019-04-03T01:11:13.440Z,32.80
2019-04-03T01:13:43.116Z,32.46
2019-04-03T01:16:12.759Z,32.46
2019-04-03T01:18:44.076Z,32.29
2019-04-03T01:21:13.691Z,32.34
2019-04-03T01:23:43.599Z,32.31
2019-04-03T01:26:14.132Z,32.48
2019-04-03T01:28:43.820Z,32.43
2019-04-03T01:31:14.855Z,32.53
2019-04-03T01:33:46.889Z,32.56
2019-04-03T01:36:17.691Z,32.51
2019-04-03T01:38:49.604Z,32.58
2019-04-03T01:41:21.262Z,32.46
2019-04-03T01:43:53.378Z,32.43
2019-04-03T01:46:22.763Z,32.57
2019-04-03T01:48:53.055Z,32.32
2019-04-03T01:51:23.038Z,32.48
2019-04-03T01:53:54.297Z,32.61
2019-04-03T01:56:24.833Z,32.54
2019-04-03T01:58:54.398Z,32.75
2019-04-03T02:01:25.914Z,32.81
2019-04-03T02:03:55.738Z,32.69
2019-04-03T02:06:25.329Z,32.64
2019-04-03T02:08:54.951Z,32.58
2019-04-03T02:11:24.777Z,32.68
2019-04-03T02:13:54.584Z,32.80
2019-04-03T02:16:24.184Z,32.79
2019-04-03T02:18:55.463Z,32.98
2019-04-03T02:21:27.780Z,32.72
2019-04-03T02:24:00.851Z,32.83
2019-04-03T02:26:32.527Z,32.86
2019-04-03T02:29:04.274Z,32.99
2019-04-03T02:31:33.358Z,32.94
2019-04-03T02:34:04.090Z,32.99
2019-04-03T02:36:33.723Z,32.97
2019-04-03T02:39:04.011Z,33.03
2019-04-03T02:41:36.462Z,33.12
2019-04-03T02:44:07.458Z,33.14
2019-04-03T02:46:37.100Z,33.14
2019-04-03T02:49:09.682Z,32.90
2019-04-03T02:51:40.408Z,32.86
2019-04-03T02:54:27.872Z,33.04
2019-04-03T02:56:59.224Z,33.25
2019-04-03T02:59:28.849Z,33.17
2019-04-03T03:01:58.808Z,33.28
2019-04-03T03:04:28.516Z,33.20
2019-04-03T03:06:58.123Z,33.33
2019-04-03T03:09:28.167Z,33.30
2019-04-03T03:11:58.392Z,33.25
2019-04-03T03:14:29.350Z,33.49
2019-04-03T03:17:00.173Z,33.41
2019-04-03T03:19:31.765Z,33.35
2019-04-03T03:22:02.393Z,33.40
2019-04-03T03:24:35.220Z,33.53
2019-04-03T03:27:08.076Z,33.71
2019-04-03T03:29:37.144Z,33.56
2019-04-03T03:32:15.742Z,33.61
2019-04-03T03:34:55.056Z,33.64
2019-04-03T03:37:13.119Z,33.63
2019-04-03T03:39:44.247Z,33.70
2019-04-03T03:42:15.330Z,33.61
2019-04-03T03:44:46.989Z,33.76
2019-04-03T03:47:18.270Z,33.82
2019-04-03T03:49:50.714Z,33.86
2019-04-03T03:52:21.168Z,33.93
2019-04-03T03:54:52.275Z,34.03
2019-04-03T03:57:22.476Z,33.94
2019-04-03T03:59:52.786Z,33.97
2019-04-03T04:02:22.806Z,34.01
2019-04-03T04:04:52.706Z,34.29
2019-04-03T04:07:22.698Z,34.20
2019-04-03T04:09:53.234Z,34.31
2019-04-03T04:12:23.452Z,34.28
2019-04-03T04:14:56.077Z,34.17
2019-04-03T04:17:25.045Z,34.32
2019-04-03T04:19:54.992Z,34.24
2019-04-03T04:22:27.368Z,34.37
2019-04-03T04:24:57.160Z,34.34
2019-04-03T04:27:28.639Z,34.48
2019-04-03T04:29:58.297Z,34.48
2019-04-03T04:32:27.925Z,34.52
2019-04-03T04:34:57.543Z,34.56
2019-04-03T04:37:27.300Z,34.62
2019-04-03T04:39:59.576Z,34.74
2019-04-03T04:42:28.991Z,34.73
2019-04-03T04:44:58.657Z,34.80
2019-04-03T04:47:30.029Z,34.62
2019-04-03T04:50:01.231Z,34.73
2019-04-03T04:52:31.240Z,34.95
2019-04-03T04:55:02.250Z,34.99
2019-04-03T04:57:32.532Z,35.02
2019-04-03T05:00:02.300Z,35.05
2019-04-03T05:02:31.981Z,35.23
2019-04-03T05:05:01.813Z,35.38
2019-04-03T05:07:31.506Z,35.44
2019-04-03T05:10:01.145Z,35.75
2019-04-03T05:12:30.808Z,35.89
2019-04-03T05:15:00.483Z,35.86
2019-04-03T05:17:30.092Z,35.85
2019-04-03T05:19:59.806Z,35.90
2019-04-03T05:22:29.672Z,35.82
2019-04-03T05:25:00.056Z,35.80
2019-04-03T05:27:29.767Z,35.75
2019-04-03T05:29:59.460Z,35.58
2019-04-03T05:32:29.741Z,35.69
2019-04-03T05:34:59.455Z,35.69
2019-04-03T05:37:29.454Z,35.68
2019-04-03T05:39:59.147Z,35.71
2019-04-03T05:42:29.513Z,35.63
2019-04-03T05:44:59.434Z,35.76
2019-04-03T05:47:29.323Z,35.71
2019-04-03T05:49:59.025Z,35.85
2019-04-03T05:52:28.683Z,35.91
2019-04-03T05:54:58.294Z,35.69
2019-04-03T05:57:29.467Z,35.48
2019-04-03T06:00:01.843Z,35.86
2019-04-03T06:02:30.724Z,35.72
2019-04-03T06:05:00.399Z,35.64
2019-04-03T06:07:31.238Z,35.69
2019-04-03T06:10:00.853Z,35.68
2019-04-03T06:12:30.474Z,35.54
2019-04-03T06:15:00.169Z,35.62
2019-04-03T06:17:30.576Z,35.62
2019-04-03T06:20:00.205Z,35.57
2019-04-03T06:22:29.865Z,35.55
2019-04-03T06:24:59.499Z,35.66
2019-04-03T06:27:29.615Z,35.48
2019-04-03T06:29:59.675Z,35.25
2019-04-03T06:32:30.222Z,35.31
2019-04-03T06:35:00.442Z,35.35
2019-04-03T06:37:30.154Z,35.14
2019-04-03T06:40:02.311Z,35.35
2019-04-03T06:42:31.581Z,35.39
2019-04-03T06:45:01.255Z,35.30
2019-04-03T06:47:32.249Z,35.55
2019-04-03T06:50:02.260Z,36.28
2019-04-03T06:52:32.003Z,36.42
2019-04-03T06:55:03.330Z,35.75
2019-04-03T06:57:33.037Z,35.78
2019-04-03T07:00:02.751Z,35.53
2019-04-03T07:02:32.463Z,35.86
2019-04-03T07:05:02.969Z,35.99
2019-04-03T07:07:35.048Z,35.81
2019-04-03T07:10:08.877Z,35.81
2019-04-03T07:12:37.517Z,35.93
2019-04-03T07:15:08.808Z,35.86
2019-04-03T07:17:38.436Z,35.86
2019-04-03T07:20:14.557Z,36.12
2019-04-03T07:22:39.734Z,36.17
2019-04-03T07:25:09.567Z,36.08
2019-04-03T07:27:41.790Z,36.43
2019-04-03T07:30:11.570Z,36.31
2019-04-03T07:32:41.630Z,36.12
2019-04-03T07:35:11.400Z,36.21
2019-04-03T07:37:41.093Z,36.51
2019-04-03T07:40:11.894Z,36.33
2019-04-03T07:42:41.801Z,36.44
2019-04-03T07:45:11.900Z,36.46
2019-04-03T07:47:41.647Z,36.43
2019-04-03T07:50:12.244Z,36.45
2019-04-03T07:52:42.011Z,36.57
2019-04-03T07:55:12.320Z,36.58
2019-04-03T07:57:42.118Z,36.90
2019-04-03T08:00:15.683Z,37.36
2019-04-03T08:02:48.206Z,37.73
2019-04-03T08:05:16.622Z,37.13
2019-04-03T08:07:47.336Z,37.29
2019-04-03T08:10:17.468Z,37.47
2019-04-03T08:12:47.252Z,37.22
2019-04-03T08:15:17.179Z,37.27
2019-04-03T08:17:49.196Z,37.21
2019-04-03T08:20:20.068Z,36.83
2019-04-03T08:22:49.675Z,36.86
2019-04-03T08:25:19.675Z,36.79
2019-04-03T08:27:49.892Z,36.88
2019-04-03T08:30:20.098Z,36.92
2019-04-03T08:32:49.787Z,37.12
2019-04-03T08:35:23.380Z,37.10
2019-04-03T08:37:52.562Z,36.99
2019-04-03T08:40:22.193Z,36.98
2019-04-03T08:42:52.384Z,36.94
2019-04-03T08:45:22.796Z,37.00
2019-04-03T08:47:52.418Z,36.95
2019-04-03T08:50:22.046Z,36.97
2019-04-03T08:52:51.725Z,36.93
2019-04-03T08:55:21.590Z,36.87
2019-04-03T08:57:52.516Z,36.96
2019-04-03T09:00:24.249Z,36.75
2019-04-03T09:02:54.107Z,36.65
2019-04-03T09:05:24.525Z,36.78
2019-04-03T09:07:56.101Z,36.89
2019-04-03T09:10:25.645Z,36.89
2019-04-03T09:12:55.558Z,36.96
2019-04-03T09:15:28.673Z,36.67
2019-04-03T09:17:58.476Z,36.68
2019-04-03T09:20:28.195Z,36.35
2019-04-03T09:22:59.406Z,36.47
2019-04-03T09:25:31.590Z,36.72
2019-04-03T09:28:04.034Z,36.96
2019-04-03T09:30:33.920Z,36.69
2019-04-03T09:33:04.344Z,36.86
2019-04-03T09:35:34.346Z,36.68
2019-04-03T09:38:04.660Z,36.43
2019-04-03T09:40:38.351Z,36.62
2019-04-03T09:43:07.182Z,36.79
2019-04-03T09:45:37.842Z,36.39
2019-04-03T09:48:07.763Z,36.71
2019-04-03T09:50:37.451Z,36.79
2019-04-03T09:53:09.141Z,36.89
2019-04-03T09:55:38.779Z,36.67
2019-04-03T09:58:09.990Z,36.40
2019-04-03T10:00:41.386Z,36.35
2019-04-03T10:03:11.005Z,36.39
2019-04-03T10:05:41.277Z,36.93
2019-04-03T10:08:11.411Z,36.34
2019-04-03T10:10:41.445Z,36.82
2019-04-03T10:13:11.182Z,36.36
2019-04-03T10:15:40.887Z,36.31
2019-04-03T10:18:12.097Z,36.40
2019-04-03T10:20:41.978Z,36.51
2019-04-03T10:23:12.241Z,36.86
2019-04-03T10:25:41.883Z,36.19
2019-04-03T10:28:13.655Z,36.24
2019-04-03T10:30:43.108Z,36.37
2019-04-03T10:33:13.120Z,36.35
2019-04-03T10:35:42.931Z,36.19
2019-04-03T10:38:12.684Z,36.52
2019-04-03T10:40:42.687Z,36.50
2019-04-03T10:43:12.336Z,37.00
2019-04-03T10:45:42.085Z,36.51
2019-04-03T10:48:11.791Z,36.78
2019-04-03T10:50:41.446Z,36.95
2019-04-03T10:53:11.698Z,36.83
2019-04-03T10:55:41.445Z,37.06
2019-04-03T10:58:11.068Z,36.99
2019-04-03T11:00:41.640Z,36.49
2019-04-03T11:03:12.184Z,36.56
2019-04-03T11:05:41.894Z,36.59
2019-04-03T11:08:11.614Z,36.29
2019-04-03T11:10:41.313Z,36.60
2019-04-03T11:13:11.132Z,37.02
2019-04-03T11:15:44.139Z,36.52
2019-04-03T11:18:12.243Z,36.38
2019-04-03T11:20:42.841Z,36.11
2019-04-03T11:23:12.598Z,36.13
2019-04-03T11:25:42.332Z,36.89
2019-04-03T11:28:12.463Z,36.48
2019-04-03T11:30:42.449Z,36.66
2019-04-03T11:33:13.579Z,36.43
2019-04-03T11:35:43.902Z,36.49
2019-04-03T11:38:21.036Z,36.21
2019-04-03T11:40:45.448Z,36.44
2019-04-03T11:43:15.396Z,35.83
2019-04-03T11:45:45.165Z,35.81
2019-04-03T11:48:16.955Z,35.78
2019-04-03T11:50:46.769Z,35.48
2019-04-03T11:53:16.493Z,35.40
2019-04-03T11:55:46.125Z,35.02
2019-04-03T11:58:16.180Z,35.04
2019-04-03T12:00:48.041Z,35.20
2019-04-03T12:03:17.915Z,34.74
2019-04-03T12:05:48.339Z,33.68
2019-04-03T12:08:18.131Z,34.33
2019-04-03T12:10:48.185Z,34.25
2019-04-03T12:13:20.800Z,33.54
2019-04-03T12:15:52.141Z,33.03
2019-04-03T12:18:20.797Z,31.50
2019-04-03T12:20:50.563Z,30.63
2019-04-03T12:23:21.380Z,31.00
2019-04-03T12:25:51.224Z,31.40
2019-04-03T12:28:21.834Z,29.81
2019-04-03T12:30:51.437Z,29.89
2019-04-03T12:33:21.715Z,29.36
2019-04-03T12:35:51.781Z,31.60
2019-04-03T12:38:22.433Z,28.87
2019-04-03T12:40:52.848Z,28.69
2019-04-03T12:43:22.496Z,28.12
2019-04-03T12:45:52.261Z,28.14
2019-04-03T12:48:22.250Z,27.27
2019-04-03T12:50:52.202Z,26.87
2019-04-03T12:53:22.339Z,26.82
2019-04-03T12:55:52.372Z,26.57
2019-04-03T12:58:22.741Z,26.29
2019-04-03T13:00:53.969Z,25.80
2019-04-03T13:03:24.671Z,25.68
2019-04-03T13:05:57.593Z,25.51
2019-04-03T13:08:27.296Z,25.97
2019-04-03T13:10:57.183Z,24.66
2019-04-03T13:13:28.379Z,24.48
2019-04-03T13:15:58.329Z,24.30
2019-04-03T13:18:28.231Z,24.07
2019-04-03T13:20:57.876Z,24.02
2019-04-03T13:23:27.699Z,23.64
2019-04-03T13:25:57.472Z,23.51
2019-04-03T13:28:27.172Z,23.54
2019-04-03T13:30:57.409Z,23.03
2019-04-03T13:33:27.195Z,22.86
2019-04-03T13:35:57.261Z,23.30
2019-04-03T13:38:28.897Z,23.30
2019-04-03T13:40:58.705Z,22.67
2019-04-03T13:43:28.349Z,22.35
2019-04-03T13:45:59.083Z,21.83
2019-04-03T13:48:28.788Z,21.39
2019-04-03T13:50:59.123Z,20.82
2019-04-03T13:53:29.923Z,20.95
2019-04-03T13:56:00.052Z,20.80
2019-04-03T13:58:30.905Z,20.65
2019-04-03T14:01:02.778Z,20.83
2019-04-03T14:03:32.027Z,21.74
2019-04-03T14:06:03.566Z,22.68
2019-04-03T14:08:33.229Z,23.63
2019-04-03T14:11:03.041Z,23.63
2019-04-03T14:13:32.739Z,24.91
2019-04-03T14:16:02.679Z,24.44
2019-04-03T14:18:32.319Z,24.43
2019-04-03T14:21:02.460Z,24.45
2019-04-03T14:23:32.935Z,25.17
2019-04-03T14:26:06.998Z,25.22
2019-04-03T14:28:35.590Z,25.30
2019-04-03T14:31:05.896Z,25.78
2019-04-03T14:33:43.587Z,26.27
2019-04-03T14:36:07.129Z,25.54
2019-04-03T14:38:36.793Z,25.81
2019-04-03T14:41:06.428Z,25.37
2019-04-03T14:43:36.131Z,25.58
2019-04-03T14:46:06.433Z,26.03
2019-04-03T14:48:36.253Z,25.99
2019-04-03T14:51:07.200Z,26.39
2019-04-03T14:53:37.415Z,26.27
2019-04-03T14:56:07.282Z,25.81
2019-04-03T14:58:37.127Z,26.31
2019-04-03T15:01:06.857Z,25.78
2019-04-03T15:03:37.310Z,25.98
2019-04-03T15:06:06.962Z,25.37
2019-04-03T15:08:38.337Z,25.31
2019-04-03T15:11:08.891Z,25.65
2019-04-03T15:13:38.793Z,25.67
2019-04-03T15:16:08.819Z,25.45
2019-04-03T15:18:39.971Z,25.20
2019-04-03T15:21:12.734Z,25.29
2019-04-03T15:23:43.333Z,25.01
2019-04-03T15:26:12.963Z,25.21
2019-04-03T15:28:42.602Z,25.79
2019-04-03T15:31:14.308Z,25.95
2019-04-03T15:33:44.044Z,25.80
2019-04-03T15:36:13.679Z,25.90
2019-04-03T15:38:45.206Z,25.83
2019-04-03T15:41:14.955Z,25.98
2019-04-03T15:43:46.638Z,25.65
2019-04-03T15:46:16.223Z,25.51
2019-04-03T15:48:46.632Z,25.52
2019-04-03T15:51:16.727Z,25.78
2019-04-03T15:53:46.939Z,25.71
2019-04-03T15:56:17.764Z,26.90
2019-04-03T15:58:48.642Z,27.07
2019-04-03T16:01:18.807Z,27.50
2019-04-03T16:03:49.528Z,27.71
2019-04-03T16:06:20.274Z,28.02
2019-04-03T16:08:50.169Z,27.78
2019-04-03T16:11:19.840Z,27.75
2019-04-03T16:13:50.124Z,28.12
2019-04-03T16:16:20.579Z,28.16
2019-04-03T16:18:50.627Z,28.23
2019-04-03T16:21:23.658Z,28.43
2019-04-03T16:23:52.966Z,28.45
2019-04-03T16:26:23.880Z,28.62
2019-04-03T16:28:56.510Z,28.69
2019-04-03T16:31:26.202Z,28.77
2019-04-03T16:33:55.855Z,28.78
2019-04-03T16:36:25.778Z,28.91
2019-04-03T16:38:55.460Z,29.02
2019-04-03T16:41:25.610Z,29.28
2019-04-03T16:43:55.314Z,29.55
2019-04-03T16:46:27.678Z,29.44
2019-04-03T16:48:57.792Z,29.63
2019-04-03T16:51:31.768Z,29.58
2019-04-03T16:54:02.011Z,29.65
2019-04-03T16:56:31.629Z,29.84
2019-04-03T16:59:01.567Z,29.76
2019-04-03T17:01:31.941Z,29.90
2019-04-03T17:04:04.357Z,29.65
2019-04-03T17:06:33.724Z,29.39
2019-04-03T17:09:05.772Z,29.38
2019-04-03T17:11:35.902Z,29.28
2019-04-03T17:14:06.182Z,29.26
2019-04-03T17:16:37.392Z,29.32
2019-04-03T17:19:07.581Z,29.35
2019-04-03T17:21:39.389Z,29.45
2019-04-03T17:24:08.726Z,29.45
2019-04-03T17:26:48.845Z,29.56
2019-04-03T17:29:13.543Z,29.55
2019-04-03T17:31:41.111Z,29.61
2019-04-03T17:34:10.742Z,29.38
2019-04-03T17:36:40.386Z,29.52
2019-04-03T17:39:11.442Z,29.57
2019-04-03T17:41:41.081Z,29.80
2019-04-03T17:44:12.007Z,29.66
2019-04-03T17:46:42.113Z,29.63
2019-04-03T17:49:11.763Z,29.55
2019-04-03T17:51:41.992Z,29.48
2019-04-03T17:54:13.819Z,29.48
2019-04-03T17:56:43.680Z,29.36
2019-04-03T17:59:13.453Z,29.23
2019-04-03T18:01:43.216Z,29.20
2019-04-03T18:04:12.922Z,29.00
2019-04-03T18:06:42.563Z,29.16
2019-04-03T18:09:12.470Z,28.88
2019-04-03T18:11:42.811Z,28.81
2019-04-03T18:14:12.618Z,28.78
2019-04-03T18:16:42.282Z,28.87
2019-04-03T18:19:11.982Z,29.01
2019-04-03T18:21:41.634Z,29.04
2019-04-03T18:24:11.332Z,29.23
2019-04-03T18:26:40.973Z,28.97
2019-04-03T18:29:10.605Z,28.87
2019-04-03T18:31:40.772Z,28.98
2019-04-03T18:34:10.478Z,28.97
2019-04-03T18:36:40.110Z,29.19
2019-04-03T18:39:11.089Z,29.01
2019-04-03T18:41:40.793Z,29.13
2019-04-03T18:44:21.507Z,29.20
2019-04-03T18:46:41.798Z,29.28
2019-04-03T18:49:11.507Z,29.22
2019-04-03T18:51:41.482Z,29.37
2019-04-03T18:54:12.177Z,29.43
2019-04-03T18:56:42.030Z,29.61
2019-04-03T18:59:11.735Z,29.75
2019-04-03T19:01:41.408Z,29.79
2019-04-03T19:04:11.118Z,29.90
2019-04-03T19:06:40.767Z,29.84
2019-04-03T19:09:10.544Z,29.66
2019-04-03T19:11:40.977Z,29.38
2019-04-03T19:14:11.212Z,29.36
2019-04-03T19:16:46.351Z,29.47
2019-04-03T19:19:12.252Z,29.59
2019-04-03T19:21:41.910Z,29.62
2019-04-03T19:24:11.585Z,29.51
2019-04-03T19:26:41.219Z,29.58
2019-04-03T19:29:10.849Z,29.50
2019-04-03T19:31:40.773Z,29.74
2019-04-03T19:34:10.561Z,29.73
2019-04-03T19:36:42.958Z,29.57
2019-04-03T19:39:11.573Z,29.53
2019-04-03T19:41:42.755Z,29.58
2019-04-03T19:44:12.898Z,29.73
2019-04-03T19:46:42.567Z,30.02
2019-04-03T19:49:12.207Z,30.54
2019-04-03T19:51:41.840Z,31.14
2019-04-03T19:54:12.081Z,31.66
2019-04-03T19:56:41.715Z,31.82
2019-04-03T19:59:11.377Z,32.02
2019-04-03T20:01:41.041Z,32.11
2019-04-03T20:04:10.676Z,32.20
2019-04-03T20:06:40.315Z,32.33
2019-04-03T20:09:10.351Z,32.21
2019-04-03T20:11:40.456Z,32.23
2019-04-03T20:14:12.001Z,32.32
2019-04-03T20:16:41.735Z,32.49
2019-04-03T20:19:11.370Z,32.57
2019-04-03T20:21:41.000Z,32.72
2019-04-03T20:24:12.652Z,32.94
2019-04-03T20:26:42.005Z,33.05
2019-04-03T20:29:11.639Z,33.04
2019-04-03T20:31:41.326Z,33.02
2019-04-03T20:34:13.092Z,33.14
2019-04-03T20:36:42.307Z,33.10
2019-04-03T20:39:11.991Z,33.16
2019-04-03T20:41:41.641Z,33.12
2019-04-03T20:44:11.285Z,33.24
2019-04-03T20:46:40.999Z,33.13
2019-04-03T20:49:10.644Z,33.14
2019-04-03T20:51:40.428Z,33.05
2019-04-03T20:54:11.765Z,33.08
2019-04-03T20:56:41.743Z,33.00
2019-04-03T20:59:12.163Z,33.06
2019-04-03T21:01:41.961Z,33.20
2019-04-03T21:04:14.613Z,33.07
2019-04-03T21:06:43.684Z,32.85
2019-04-03T21:09:13.727Z,32.89
2019-04-03T21:11:43.385Z,32.82
2019-04-03T21:14:13.018Z,32.86
2019-04-03T21:16:42.860Z,32.78
2019-04-03T21:19:12.957Z,32.83
2019-04-03T21:21:42.592Z,32.93
2019-04-03T21:24:12.255Z,32.89
2019-04-03T21:26:42.360Z,32.98
2019-04-03T21:29:12.013Z,33.13
2019-04-03T21:31:41.684Z,33.02
2019-04-03T21:34:11.312Z,33.15
2019-04-03T21:36:41.267Z,33.04
2019-04-03T21:39:12.844Z,33.12
2019-04-03T21:41:42.301Z,32.97
2019-04-03T21:44:11.909Z,32.87
2019-04-03T21:46:41.569Z,32.95
2019-04-03T21:49:11.200Z,32.79
2019-04-03T21:51:41.490Z,32.81
2019-04-03T21:54:11.213Z,32.89
2019-04-03T21:56:41.178Z,32.80
2019-04-03T21:59:11.434Z,33.00
2019-04-03T22:01:41.242Z,32.80
2019-04-03T22:04:10.875Z,32.93
2019-04-03T22:06:40.497Z,32.60
2019-04-03T22:09:12.402Z,32.80
2019-04-03T22:11:42.163Z,32.82
2019-04-03T22:14:11.937Z,32.76
2019-04-03T22:16:41.739Z,32.75
2019-04-03T22:19:11.514Z,32.81
2019-04-03T22:21:41.278Z,32.70
2019-04-03T22:24:11.007Z,32.73
2019-04-03T22:26:41.394Z,32.79
2019-04-03T22:29:11.481Z,32.78
2019-04-03T22:31:41.241Z,32.68
2019-04-03T22:34:11.073Z,32.75
2019-04-03T22:36:41.209Z,32.80
2019-04-03T22:39:13.667Z,32.84
2019-04-03T22:41:43.453Z,32.79
2019-04-03T22:44:13.246Z,32.71
2019-04-03T22:46:43.073Z,32.74
2019-04-03T22:49:14.183Z,32.60
2019-04-03T22:51:43.901Z,32.57
2019-04-03T22:54:13.773Z,32.49
2019-04-03T22:56:43.530Z,32.54
2019-04-03T22:59:13.234Z,32.67
2019-04-03T23:01:42.996Z,32.66
2019-04-03T23:04:12.768Z,32.62
2019-04-03T23:06:42.532Z,32.65
2019-04-03T23:09:13.596Z,32.63
2019-04-03T23:11:43.282Z,32.76
2019-04-03T23:14:12.974Z,32.87
2019-04-03T23:16:44.303Z,32.71
2019-04-03T23:19:14.068Z,32.64
2019-04-03T23:21:43.780Z,32.70
2019-04-03T23:24:13.506Z,32.70
2019-04-03T23:26:43.144Z,32.75
2019-04-03T23:29:14.268Z,32.62
2019-04-03T23:31:45.024Z,32.85
2019-04-03T23:34:18.748Z,32.88
2019-04-03T23:36:47.104Z,32.90
2019-04-03T23:39:16.818Z,33.02
2019-04-03T23:41:46.441Z,33.22
2019-04-03T23:44:16.148Z,33.37
2019-04-03T23:46:47.567Z,33.48
2019-04-03T23:49:18.222Z,33.57
2019-04-03T23:51:49.377Z,33.71
2019-04-03T23:54:19.114Z,33.77
2019-04-03T23:56:48.832Z,33.95
2019-04-03T23:59:18.576Z,34.08
